Nearby METAR Reports

 

KMTN - Baltimore/Martin, Maryland, USA
Distance from station: SSE 8mi, 13km
Updated: Fri, 29-Apr-2016 2:55pm EDT
Overcast
Overcast
 Wind from NE
Wind: NE 3 mph , 6 km/h
Temperature: 52°F , 11°C
Dew Point: 50°F , 10°C
Humidity: 94%
Barometer: 30.08 inHg , 1018.6 hPa
Clouds: Overcast
Visibility: 10 miles , 16 km
Cloud details: Overcast 1200 ft
2016/04/29 18:55 KMTN 291855Z 05003KT 10SM OVC012 11/10 A3008
KDMH - Baltimore/Dwntwn, Maryland, USA
Distance from station: SW 12mi, 19km
Updated: Fri, 29-Apr-2016 2:54pm EDT

 
Temperature: 52°F , 11°C
Dew Point: 46°F , 8°C
Humidity: 82%
Barometer: 30.07 inHg , 1018.3 hPa
2016/04/29 18:54 KDMH 291854Z AUTO 11/08 A3007 RMK AO1 SLP180 T01110078
 
KBWI - Balto/Wash Intl, Maryland, USA
Distance from station: SSW 20mi, 33km
Updated: Fri, 29-Apr-2016 2:54pm EDT
Overcast
Overcast
 Wind from ENE
Wind: ENE 7 mph , 11 km/h
Temperature: 52°F , 11°C
Dew Point: 46°F , 8°C
Humidity: 82%
Barometer: 30.05 inHg , 1017.6 hPa
Clouds: Overcast
Visibility: 7 miles , 11 km
Cloud details: Overcast 900 ft
2016/04/29 18:54 KBWI 291854Z 07006KT 7SM OVC009 11/08 A3005 RMK AO2 SLP175 T01060083
KDMW - Carroll Cnty, Maryland, USA
Distance from station: WNW 30mi, 48km
Updated: Fri, 29-Apr-2016 3:35pm EDT
Overcast
Overcast
 Wind from SSE
Wind: SSE 5 mph , 7 km/h
Temperature: 50°F , 10°C
Wind Chill: 48°F , 9°C
Dew Point: 48°F , 9°C
Humidity: 94%
Barometer: 30.02 inHg , 1016.6 hPa
Clouds: Overcast
Visibility: 10 miles , 16 km
Cloud details: Overcast 600 ft
2016/04/29 19:35 KDMW 291935Z AUTO 15004KT 10SM OVC006 10/09 A3002 RMK AO2
 
KNAK - Annapolis/Naval, Maryland, USA
Distance from station: S 30mi, 48km
Updated: Fri, 29-Apr-2016 2:54pm EDT
Overcast
Overcast
 
Temperature: 52°F , 11°C
Dew Point: 48°F , 9°C
Humidity: 88%
Barometer: 30.06 inHg , 1017.9 hPa
Clouds: Overcast
Visibility: 10 miles , 16 km
Cloud details: Overcast 1200 ft
2016/04/29 18:54 KNAK 291854Z AUTO 10SM OVC012 11/09 A3006 RMK AO2 SLP180 T01110094
KW29 - Stevensville, Maryland, USA
Distance from station: SSE 31mi, 50km
Updated: Tue, 26-Apr-2016 2:56pm EDT
NOT Current

 
Temperature: 79°F , 26°C
Dew Point: 50°F , 10°C
Humidity: 37%
Barometer: 29.68 inHg , 1005.1 hPa
Visibility: 10 miles , 16 km
2016/04/26 18:56 KW29 261856Z 10SM 26/10 A2968 RMK AO1
 
KCGS - College Park, Maryland, USA
Distance from station: SW 38mi, 61km
Updated: Fri, 29-Apr-2016 3:35pm EDT
Overcast
Overcast
 Wind from calm
Wind: Calm
Temperature: 52°F , 11°C
Dew Point: 46°F , 8°C
Humidity: 82%
Barometer: 30.04 inHg , 1017.3 hPa
Clouds: Overcast
Visibility: 10 miles , 16 km
Cloud details: Overcast 1100 ft
2016/04/29 19:35 KCGS 291935Z AUTO 00000KT 10SM OVC011 11/08 A3004 RMK AO1
KGAI - Gaithersburg, Maryland, USA
Distance from station: WSW 40mi, 65km
Updated: Fri, 29-Apr-2016 3:35pm EDT
Overcast
Overcast
 Wind from SE
Wind: SE 6 mph , 9 km/h
Temperature: 52°F , 11°C
Dew Point: 46°F , 8°C
Humidity: 82%
Barometer: 30.07 inHg , 1018.3 hPa
Clouds: Overcast
Visibility: 10 miles , 16 km
Cloud details: Overcast 800 ft
2016/04/29 19:35 KGAI 291935Z AUTO 14005KT 10SM OVC008 11/08 A3007 RMK AO1
 
KTHV - York, Pennsylvania, USA
Distance from station: NNW 40mi, 65km
Updated: Fri, 29-Apr-2016 2:53pm EDT
Overcast
Overcast
 Wind from SE
Wind: SE 6 mph , 9 km/h
Temperature: 48°F , 9°C
Wind Chill: 45°F , 7°C
Dew Point: 46°F , 8°C
Humidity: 94%
Barometer: 30.05 inHg , 1017.6 hPa
Clouds: Overcast
Visibility: 9 miles , 14 km
Cloud details: Overcast 1200 ft
2016/04/29 18:53 KTHV 291853Z AUTO 14005KT 9SM OVC012 09/08 A3005 RMK AO2 SLP179 T00940078
KFDK - Frederick, Maryland, USA
Distance from station: W 47mi, 75km
Updated: Fri, 29-Apr-2016 2:55pm EDT
Mist, Overcast
Mist, Overcast
 Wind from varies
Wind: varies 3 mph , 6 km/h
Temperature: 52°F , 11°C
Dew Point: 48°F , 9°C
Humidity: 88%
Barometer: 30.07 inHg , 1018.3 hPa
Summary: Mist
Clouds: Overcast
Visibility: 5 miles , 8 km
Cloud details: Overcast 1200 ft
2016/04/29 18:55 KFDK 291855Z VRB03KT 5SM BR OVC012 11/09 A3007
 
KESN - Easton/Newnam, Maryland, USA
Distance from station: SSE 48mi, 78km
Updated: Fri, 29-Apr-2016 2:55pm EDT
Haze, Overcast
Haze, Overcast
 Wind from E
Wind: E 5 mph , 7 km/h
Barometer: 30.09 inHg , 1019 hPa
Summary: Haze
Clouds: Overcast
Visibility: 5 miles , 8 km
Cloud details: Overcast 900 ft
2016/04/29 18:55 KESN 291855Z 09004KT 5SM HZ OVC009 A3009
KDCA - Washington/Natl, Washington D.c., USA
Distance from station: SW 49mi, 79km
Updated: Fri, 29-Apr-2016 2:52pm EDT
Overcast
Overcast
 Wind from ENE
Wind: ENE 8 mph , 13 km/h
Temperature: 54°F , 12°C
Dew Point: 48°F , 9°C
Humidity: 82%
Barometer: 30.04 inHg , 1017.3 hPa
Clouds: Overcast
Visibility: 10 miles , 16 km
Cloud details: Overcast 1200 ft
2016/04/29 18:52 KDCA 291852Z 06007KT 10SM OVC012 12/09 A3004 RMK AO2 SLP173 T01220094
 
KLNS - Lancaster, Pennsylvania, USA
Distance from station: N 49mi, 79km
Updated: Fri, 29-Apr-2016 2:53pm EDT
Overcast
Overcast
 Wind from ESE
Wind: ESE 8 mph , 13 km/h
Temperature: 48°F , 9°C
Wind Chill: 44°F , 7°C
Dew Point: 45°F , 7°C
Humidity: 87%
Barometer: 30.06 inHg , 1017.9 hPa
Clouds: Overcast
Visibility: 8 miles , 13 km
Cloud details: Overcast 1600 ft
2016/04/29 18:53 KLNS 291853Z 12007KT 8SM OVC016 09/07 A3006 RMK AO2 SLP182 T00940072
KILG - Wilmington, Delaware, USA
Distance from station: ENE 50mi, 81km
Updated: Fri, 29-Apr-2016 2:51pm EDT
Overcast
Overcast
 Wind from NE
Wind: NE 6 mph , 9 km/h
Temperature: 52°F , 11°C
Dew Point: 43°F , 6°C
Humidity: 72%
Barometer: 30.08 inHg , 1018.6 hPa
Clouds: Overcast
Visibility: 10 miles , 16 km
Cloud details: Overcast 2000 ft
2016/04/29 18:51 KILG 291851Z 05005KT 10SM OVC020 11/06 A3008 RMK AO2 RAE07 SLP187 P0000 T01060061